Time;durP1;ratioP1;P1;durP2;ratioP2;P2;SDS_P1;SDS_P2;PMS_P1;PMS_P2;Temp;Humidity;BMP_temperature;BMP_pressure;BME280_temperature;BME280_humidity;BME280_pressure;Samples;Min_cycle;Max_cycle;Signal;HPM_P1;HPM_P2
2024/03/18 00:01:41;;;;;;;;;;;;;;;8.23;45.62;95572.88;4971061;28;20420;-67
2024/03/18 00:04:07;;;;;;;;;;;;;;;8.30;45.26;95579.19;4974971;28;19922;-67
2024/03/18 00:06:32;;;;;;;;;;;;;;;8.28;45.24;95570.56;4975905;28;19936;-68
2024/03/18 00:08:57;;;;;;;;;;;;;;;8.26;44.92;95569.06;4976954;28;20434;-66
2024/03/18 00:11:22;;;;;;;;;;;;;;;8.14;45.55;95563.25;4975365;28;20035;-67
2024/03/18 00:13:48;;;;;;;;;;;;;;;8.25;44.75;95560.28;4973251;28;19957;-68
2024/03/18 00:16:13;;;;;;;;;;;;;;;8.25;45.34;95562.09;4974701;28;19921;-67
2024/03/18 00:18:39;;;;;;;;;;;;;;;8.27;45.17;95554.81;4972598;28;19926;-67
2024/03/18 00:21:04;;;;;;;;;;;;;;;8.25;45.13;95557.63;4970354;28;19926;-67
2024/03/18 00:23:30;;;;;;;;;;;;;;;8.29;45.05;95552.81;4974004;28;19976;-68
2024/03/18 00:25:56;;;;;;;;;;;;;;;8.25;45.56;95552.31;4972821;28;19956;-67
2024/03/18 00:28:22;;;;;;;;;;;;;;;8.08;44.94;95553.28;4977221;28;20411;-68
2024/03/18 00:30:48;;;;;;;;;;;;;;;8.11;45.22;95553.81;4969235;28;19945;-67
2024/03/18 00:33:13;;;;;;;;;;;;;;;8.09;45.90;95542.53;4970114;28;19926;-67
2024/03/18 00:35:38;;;;;;;;;;;;;;;8.03;45.52;95544.00;4977704;28;20001;-67
2024/03/18 00:38:04;;;;;;;;;;;;;;;8.02;45.78;95545.00;4978535;28;20486;-67
2024/03/18 00:40:29;;;;;;;;;;;;;;;7.72;45.46;95544.56;4976288;28;19926;-68
2024/03/18 00:42:54;;;;;;;;;;;;;;;7.79;46.25;95539.50;4971856;28;20016;-67
2024/03/18 00:45:20;;;;;;;;;;;;;;;7.95;45.67;95530.75;4972709;28;19996;-67
2024/03/18 00:47:46;;;;;;;;;;;;;;;8.01;45.61;95529.25;4976083;28;19925;-67
2024/03/18 00:50:11;;;;;;;;;;;;;;;7.94;46.06;95523.78;4967583;28;19925;-68
2024/03/18 00:52:37;;;;;;;;;;;;;;;8.06;45.51;95513.69;4974691;28;19965;-67
2024/03/18 00:55:04;;;;;;;;;;;;;;;8.02;45.37;95510.53;4964275;28;19977;-67
2024/03/18 00:57:29;;;;;;;;;;;;;;;7.94;45.72;95517.66;4968404;28;19975;-67
2024/03/18 00:59:54;;;;;;;;;;;;;;;7.97;46.11;95517.31;4972627;28;19914;-67
2024/03/18 01:02:19;;;;;;;;;;;;;;;7.88;45.67;95513.81;4969023;28;20021;-67
2024/03/18 01:04:45;;;;;;;;;;;;;;;7.98;45.30;95521.63;4979049;28;21444;-67
2024/03/18 01:07:10;;;;;;;;;;;;;;;8.02;45.76;95525.59;4977533;28;19992;-67
2024/03/18 01:09:37;;;;;;;;;;;;;;;8.07;45.31;95514.50;4976520;28;20457;-67
2024/03/18 01:12:02;;;;;;;;;;;;;;;7.96;44.98;95519.13;4978945;28;19922;-67
2024/03/18 01:14:27;;;;;;;;;;;;;;;7.90;45.44;95518.00;4974146;28;20507;-67
2024/03/18 01:16:53;;;;;;;;;;;;;;;8.00;45.44;95509.88;4976568;28;19976;-67
2024/03/18 01:19:19;;;;;;;;;;;;;;;8.05;45.48;95510.22;4973637;28;19926;-67
2024/03/18 01:21:44;;;;;;;;;;;;;;;8.15;44.84;95512.69;4977433;28;19969;-66
2024/03/18 01:24:10;;;;;;;;;;;;;;;8.09;44.24;95504.59;4977491;28;19980;-67
2024/03/18 01:26:36;;;;;;;;;;;;;;;7.97;46.35;95502.25;4976687;28;19984;-67
2024/03/18 01:29:02;;;;;;;;;;;;;;;8.01;46.46;95500.09;4976325;28;19957;-66
2024/03/18 01:31:27;;;;;;;;;;;;;;;8.00;46.09;95507.25;4977798;28;20392;-66
2024/03/18 01:33:52;;;;;;;;;;;;;;;8.01;46.34;95506.25;4971060;28;19976;-67
2024/03/18 01:36:17;;;;;;;;;;;;;;;8.03;45.73;95506.06;4973275;28;19925;-67
2024/03/18 01:38:43;;;;;;;;;;;;;;;8.03;46.58;95503.41;4964839;28;20029;-67
2024/03/18 01:41:08;;;;;;;;;;;;;;;8.08;46.17;95502.91;4977816;28;20396;-67
2024/03/18 01:43:35;;;;;;;;;;;;;;;8.14;45.98;95494.31;4980322;28;19929;-66
2024/03/18 01:46:01;;;;;;;;;;;;;;;8.15;46.52;95495.94;4973505;28;19936;-67
2024/03/18 01:48:27;;;;;;;;;;;;;;;8.04;46.08;95484.69;4976652;28;19926;-66
2024/03/18 01:50:53;;;;;;;;;;;;;;;8.08;45.49;95489.66;4970016;28;19926;-67
2024/03/18 01:53:18;;;;;;;;;;;;;;;8.07;46.08;95488.00;4978116;28;19932;-66
2024/03/18 01:55:43;;;;;;;;;;;;;;;8.05;46.68;95488.16;4973641;28;20025;-67
2024/03/18 01:58:09;;;;;;;;;;;;;;;8.05;46.41;95480.22;4970355;28;20261;-66
2024/03/18 02:00:37;;;;;;;;;;;;;;;8.12;46.21;95483.03;4974451;28;19918;-66
2024/03/18 02:03:03;;;;;;;;;;;;;;;8.11;45.33;95479.56;4976426;28;20346;-67
2024/03/18 02:05:29;;;;;;;;;;;;;;;8.18;45.64;95483.22;4972731;28;19922;-67
2024/03/18 02:07:54;;;;;;;;;;;;;;;8.00;44.64;95482.53;4974915;28;20125;-66
2024/03/18 02:10:19;;;;;;;;;;;;;;;8.07;45.72;95483.53;4985271;28;20020;-67
2024/03/18 02:12:45;;;;;;;;;;;;;;;8.18;46.04;95469.09;4975697;28;19929;-66
2024/03/18 02:15:11;;;;;;;;;;;;;;;8.16;46.05;95474.56;4966210;28;19934;-66
2024/03/18 02:17:37;;;;;;;;;;;;;;;8.22;45.87;95473.09;4978999;28;19926;-67
2024/03/18 02:20:02;;;;;;;;;;;;;;;8.29;45.90;95465.28;4972263;28;20465;-68
2024/03/18 02:22:28;;;;;;;;;;;;;;;8.23;45.96;95472.09;4973388;28;19933;-67
2024/03/18 02:24:53;;;;;;;;;;;;;;;8.26;46.32;95469.09;4979675;28;19933;-66
2024/03/18 02:27:18;;;;;;;;;;;;;;;8.08;45.97;95463.97;4980790;28;20021;-67
2024/03/18 02:29:43;;;;;;;;;;;;;;;8.15;46.44;95464.13;4977333;28;19926;-66
2024/03/18 02:32:09;;;;;;;;;;;;;;;8.11;46.57;95453.03;4972363;28;20827;-67
2024/03/18 02:34:35;;;;;;;;;;;;;;;8.15;46.57;95449.06;4976223;28;20032;-68
2024/03/18 02:37:00;;;;;;;;;;;;;;;8.16;46.33;95444.59;4975762;28;19961;-66
2024/03/18 02:39:26;;;;;;;;;;;;;;;8.14;46.48;95452.72;4974077;28;19929;-67
2024/03/18 02:41:52;;;;;;;;;;;;;;;8.07;46.53;95445.56;4979691;28;20042;-67
2024/03/18 02:44:17;;;;;;;;;;;;;;;8.04;46.91;95446.75;4973452;28;20242;-67
2024/03/18 02:46:43;;;;;;;;;;;;;;;8.01;47.22;95439.97;4969686;28;19949;-67
2024/03/18 02:49:08;;;;;;;;;;;;;;;8.05;46.88;95441.28;4974433;28;19930;-67
2024/03/18 02:51:33;;;;;;;;;;;;;;;8.07;46.71;95438.47;4975335;28;19937;-67
2024/03/18 02:53:59;;;;;;;;;;;;;;;8.03;47.10;95439.78;4972792;28;20534;-67
2024/03/18 02:56:24;;;;;;;;;;;;;;;8.03;47.25;95427.34;4976543;28;20366;-67
2024/03/18 02:58:49;;;;;;;;;;;;;;;8.00;47.11;95425.06;4979641;28;19930;-67
2024/03/18 03:01:14;;;;;;;;;;;;;;;8.05;46.76;95414.75;4982201;28;19929;-67
2024/03/18 03:03:40;;;;;;;;;;;;;;;8.07;46.99;95419.91;4975236;28;20461;-67
2024/03/18 03:06:06;;;;;;;;;;;;;;;8.09;47.21;95414.44;4979041;28;19930;-67
2024/03/18 03:08:31;;;;;;;;;;;;;;;8.07;47.06;95419.06;4972881;28;20367;-67
2024/03/18 03:10:56;;;;;;;;;;;;;;;8.05;47.36;95411.28;4974638;28;19925;-67
2024/03/18 03:13:22;;;;;;;;;;;;;;;7.99;47.23;95412.75;4978518;28;19961;-67
2024/03/18 03:15:47;;;;;;;;;;;;;;;7.99;47.39;95411.97;4978269;28;20399;-67
2024/03/18 03:18:14;;;;;;;;;;;;;;;7.98;47.04;95413.78;4974019;28;19988;-66
2024/03/18 03:20:39;;;;;;;;;;;;;;;8.01;47.23;95409.94;4985737;28;19954;-68
2024/03/18 03:23:04;;;;;;;;;;;;;;;8.01;47.33;95405.50;4979658;28;20446;-67
2024/03/18 03:25:29;;;;;;;;;;;;;;;7.96;47.85;95404.34;4975523;28;19938;-67
2024/03/18 03:27:58;;;;;;;;;;;;;;;7.95;47.52;95405.34;4975132;28;20003;-67
2024/03/18 03:30:23;;;;;;;;;;;;;;;7.99;47.65;95404.81;4976999;28;19925;-67
2024/03/18 03:32:48;;;;;;;;;;;;;;;8.02;47.31;95401.00;4974134;28;19933;-67
2024/03/18 03:35:14;;;;;;;;;;;;;;;8.02;47.11;95396.53;4974838;28;19932;-67
2024/03/18 03:37:39;;;;;;;;;;;;;;;8.03;47.10;95403.47;4971515;28;19961;-67
2024/03/18 03:40:04;;;;;;;;;;;;;;;8.00;47.28;95397.69;4979707;28;20045;-66
2024/03/18 03:42:30;;;;;;;;;;;;;;;8.01;47.53;95400.19;4977930;28;19941;-67
2024/03/18 03:44:55;;;;;;;;;;;;;;;8.02;47.17;95395.69;4969822;28;20020;-67
2024/03/18 03:47:21;;;;;;;;;;;;;;;8.04;47.71;95396.38;4973954;28;19969;-67
2024/03/18 03:49:46;;;;;;;;;;;;;;;8.01;47.40;95392.22;4974155;28;20409;-67
2024/03/18 03:52:11;;;;;;;;;;;;;;;8.02;47.18;95385.94;4972781;28;19933;-67
2024/03/18 03:54:37;;;;;;;;;;;;;;;8.01;47.74;95386.09;4975091;28;20361;-67
2024/03/18 03:57:02;;;;;;;;;;;;;;;8.01;47.30;95383.44;4974510;28;20398;-67
2024/03/18 03:59:27;;;;;;;;;;;;;;;8.00;47.35;95382.63;4977976;28;19921;-67
2024/03/18 04:01:54;;;;;;;;;;;;;;;8.00;47.49;95377.31;4979244;28;19925;-67
2024/03/18 04:04:20;;;;;;;;;;;;;;;8.00;47.44;95377.31;4977306;28;19965;-67
2024/03/18 04:06:45;;;;;;;;;;;;;;;8.01;47.28;95384.28;4977568;28;20040;-67
2024/03/18 04:09:10;;;;;;;;;;;;;;;8.03;47.82;95381.47;4975866;28;19929;-66
2024/03/18 04:11:36;;;;;;;;;;;;;;;8.04;47.25;95381.31;4988024;28;19933;-67
2024/03/18 04:14:01;;;;;;;;;;;;;;;8.03;48.01;95379.63;4973796;28;19933;-67
2024/03/18 04:16:27;;;;;;;;;;;;;;;8.02;47.67;95377.13;4972463;28;20017;-67
2024/03/18 04:18:52;;;;;;;;;;;;;;;8.02;47.99;95377.97;4972471;28;19926;-67
2024/03/18 04:21:18;;;;;;;;;;;;;;;8.02;47.52;95375.31;4979845;28;19922;-67
2024/03/18 04:23:43;;;;;;;;;;;;;;;7.98;47.83;95366.06;4972480;28;19980;-67
2024/03/18 04:26:08;;;;;;;;;;;;;;;8.02;47.60;95372.66;4976468;28;19937;-67
2024/03/18 04:28:34;;;;;;;;;;;;;;;8.02;47.86;95372.66;4972231;28;20500;-67
2024/03/18 04:31:11;;;;;;;;;;;;;;;8.02;47.79;95371.84;4971232;28;19973;-67
2024/03/18 04:33:37;;;;;;;;;;;;;;;7.99;48.09;95373.00;4974182;28;19925;-67
2024/03/18 04:36:02;;;;;;;;;;;;;;;7.95;48.12;95374.34;4969666;28;19980;-67
2024/03/18 04:38:28;;;;;;;;;;;;;;;7.98;47.91;95373.16;4976360;28;19926;-67
2024/03/18 04:40:53;;;;;;;;;;;;;;;7.90;48.34;95369.56;4977679;28;19925;-67
2024/03/18 04:43:19;;;;;;;;;;;;;;;7.88;48.28;95368.88;4980275;28;19929;-67
2024/03/18 04:45:44;;;;;;;;;;;;;;;7.90;47.88;95374.00;4972231;28;20377;-67
2024/03/18 04:48:10;;;;;;;;;;;;;;;7.93;48.06;95365.75;4976618;28;19930;-67
2024/03/18 04:50:35;;;;;;;;;;;;;;;7.91;47.93;95363.25;4978821;28;20065;-67
2024/03/18 04:53:00;;;;;;;;;;;;;;;7.91;48.37;95362.41;4975037;28;20009;-66
2024/03/18 04:55:26;;;;;;;;;;;;;;;7.91;47.92;95371.19;4972966;28;20008;-67
2024/03/18 04:57:52;;;;;;;;;;;;;;;7.92;48.27;95364.91;4974872;28;19969;-67
2024/03/18 05:00:17;;;;;;;;;;;;;;;7.87;48.19;95369.03;4982187;28;19957;-66
2024/03/18 05:02:43;;;;;;;;;;;;;;;7.90;48.25;95372.19;4981639;28;19925;-67
2024/03/18 05:05:09;;;;;;;;;;;;;;;7.90;47.93;95366.06;4978906;28;20316;-67
2024/03/18 05:07:34;;;;;;;;;;;;;;;7.90;48.11;95366.91;4979986;28;20624;-67
2024/03/18 05:10:00;;;;;;;;;;;;;;;7.92;48.53;95364.06;4981417;28;19937;-67
2024/03/18 05:12:25;;;;;;;;;;;;;;;7.94;48.16;95358.59;4973648;28;19980;-67
2024/03/18 05:14:50;;;;;;;;;;;;;;;7.90;48.13;95355.47;4984155;28;19976;-67
2024/03/18 05:17:16;;;;;;;;;;;;;;;7.95;48.25;95352.31;4977619;28;19972;-67
2024/03/18 05:19:41;;;;;;;;;;;;;;;7.95;48.45;95354.97;4976078;28;20441;-67
2024/03/18 05:22:06;;;;;;;;;;;;;;;7.96;48.44;95352.13;4977094;28;20406;-67
2024/03/18 05:24:32;;;;;;;;;;;;;;;7.99;48.12;95351.78;4978557;28;20016;-66
2024/03/18 05:26:57;;;;;;;;;;;;;;;8.05;48.00;95348.47;4977292;28;19965;-67
2024/03/18 05:29:22;;;;;;;;;;;;;;;8.07;48.27;95345.66;4969448;28;19955;-67
2024/03/18 05:31:48;;;;;;;;;;;;;;;8.08;48.02;95351.78;4979451;28;19968;-66
2024/03/18 05:34:13;;;;;;;;;;;;;;;8.11;47.69;95356.75;4983185;28;19925;-66
2024/03/18 05:36:38;;;;;;;;;;;;;;;8.12;48.00;95351.28;4978630;28;19969;-67
2024/03/18 05:39:04;;;;;;;;;;;;;;;8.15;47.86;95352.75;4970393;28;19933;-67
2024/03/18 05:41:29;;;;;;;;;;;;;;;8.17;47.63;95356.09;4976859;28;19945;-67
2024/03/18 05:43:55;;;;;;;;;;;;;;;8.18;48.09;95355.06;4979540;28;19922;-67
2024/03/18 05:46:21;;;;;;;;;;;;;;;8.18;48.05;95352.44;4976467;28;19981;-67
2024/03/18 05:48:46;;;;;;;;;;;;;;;8.20;47.77;95354.91;4973405;28;19933;-67
2024/03/18 05:51:12;;;;;;;;;;;;;;;8.21;47.82;95354.75;4976862;28;19930;-67
2024/03/18 05:53:38;;;;;;;;;;;;;;;8.24;47.95;95361.53;4975104;28;19932;-68
2024/03/18 05:56:04;;;;;;;;;;;;;;;8.26;47.74;95355.06;4971616;28;19972;-67
2024/03/18 05:58:30;;;;;;;;;;;;;;;8.28;47.77;95354.88;4974391;28;19925;-67
2024/03/18 06:00:55;;;;;;;;;;;;;;;8.29;47.64;95360.03;4982646;28;19933;-67
2024/03/18 06:03:20;;;;;;;;;;;;;;;8.26;47.74;95354.25;4980126;28;19926;-67
2024/03/18 06:05:46;;;;;;;;;;;;;;;8.27;48.49;95361.19;4973829;28;20422;-67
2024/03/18 06:08:11;;;;;;;;;;;;;;;8.25;47.95;95364.00;4972402;28;19932;-67
2024/03/18 06:10:36;;;;;;;;;;;;;;;8.29;47.72;95364.50;4975543;28;19949;-67
2024/03/18 06:13:02;;;;;;;;;;;;;;;8.32;47.73;95363.34;4977400;28;19926;-67
2024/03/18 06:15:28;;;;;;;;;;;;;;;8.33;48.01;95362.34;4979048;28;20363;-66
2024/03/18 06:17:53;;;;;;;;;;;;;;;8.36;47.81;95359.34;4975373;28;20354;-66
2024/03/18 06:20:19;;;;;;;;;;;;;;;8.39;47.99;95367.78;4977860;28;19926;-67
2024/03/18 06:22:46;;;;;;;;;;;;;;;8.41;47.91;95367.63;4979028;28;20078;-67
2024/03/18 06:27:55;;;;;;;;;;;;;;;8.47;47.71;95369.56;4975530;28;19953;-66
2024/03/18 06:30:20;;;;;;;;;;;;;;;8.50;47.66;95361.28;4976366;28;20624;-66
2024/03/18 06:32:45;;;;;;;;;;;;;;;8.57;47.10;95366.75;4973633;28;19922;-67
2024/03/18 06:35:11;;;;;;;;;;;;;;;8.59;47.31;95364.75;4975337;28;19931;-67
2024/03/18 06:37:36;;;;;;;;;;;;;;;8.64;47.44;95365.03;4971465;28;19949;-66
2024/03/18 06:40:05;;;;;;;;;;;;;;;8.62;48.01;95375.03;4975358;28;19956;-67
2024/03/18 06:42:30;;;;;;;;;;;;;;;8.61;47.58;95377.84;4980096;28;19926;-67
2024/03/18 06:44:55;;;;;;;;;;;;;;;8.65;47.87;95373.84;4972873;28;19926;-66
2024/03/18 06:47:21;;;;;;;;;;;;;;;8.71;47.46;95374.97;4974125;28;19930;-67
2024/03/18 06:49:46;;;;;;;;;;;;;;;8.60;48.46;95382.31;4976593;28;20013;-67
2024/03/18 06:52:11;;;;;;;;;;;;;;;8.59;47.59;95383.31;4975224;28;20338;-67
2024/03/18 06:54:36;;;;;;;;;;;;;;;8.65;47.07;95380.00;4977499;28;19932;-66
2024/03/18 06:57:02;;;;;;;;;;;;;;;8.67;47.49;95385.13;4971545;28;20024;-67
2024/03/18 06:59:27;;;;;;;;;;;;;;;8.68;47.40;95378.81;4978936;28;19999;-67
2024/03/18 07:01:52;;;;;;;;;;;;;;;8.71;47.91;95385.59;4978630;28;20127;-66
2024/03/18 07:04:17;;;;;;;;;;;;;;;8.41;48.16;95386.19;4982428;28;19949;-66
2024/03/18 07:06:43;;;;;;;;;;;;;;;8.52;48.45;95383.19;4974136;28;19972;-67
2024/03/18 07:09:08;;;;;;;;;;;;;;;8.64;48.25;95380.16;4975093;28;20495;-67
2024/03/18 07:11:33;;;;;;;;;;;;;;;8.78;47.72;95386.56;4975228;28;19930;-68
2024/03/18 07:13:58;;;;;;;;;;;;;;;8.91;47.33;95386.03;4967156;28;19928;-67
2024/03/18 07:16:24;;;;;;;;;;;;;;;8.98;47.22;95389.66;4976876;28;19937;-69
2024/03/18 07:18:49;;;;;;;;;;;;;;;9.06;46.67;95381.66;4974793;28;20016;-68
2024/03/18 07:21:14;;;;;;;;;;;;;;;9.16;46.32;95386.75;4975995;28;19996;-66
2024/03/18 07:23:39;;;;;;;;;;;;;;;9.13;47.54;95386.25;4974123;28;19922;-66
2024/03/18 07:26:05;;;;;;;;;;;;;;;9.27;47.28;95390.84;4982480;28;20755;-69
2024/03/18 07:28:33;;;;;;;;;;;;;;;9.11;48.04;95393.59;4972366;28;20875;-66
2024/03/18 07:30:58;;;;;;;;;;;;;;;9.03;47.77;95397.94;4975635;28;20025;-67
2024/03/18 07:33:23;;;;;;;;;;;;;;;8.44;49.00;95399.13;4971808;28;20036;-68
2024/03/18 07:35:51;;;;;;;;;;;;;;;8.74;49.06;95394.03;4978155;28;19917;-67
2024/03/18 07:38:16;;;;;;;;;;;;;;;8.51;50.27;95389.50;4973935;28;20422;-67
2024/03/18 07:40:41;;;;;;;;;;;;;;;8.43;49.62;95397.44;4978081;28;19928;-66
2024/03/18 07:43:11;;;;;;;;;;;;;;;8.42;49.36;95395.78;4977454;28;20310;-66
2024/03/18 07:45:36;;;;;;;;;;;;;;;8.51;49.14;95400.09;4972002;28;20458;-66
2024/03/18 07:48:04;;;;;;;;;;;;;;;8.68;49.16;95395.53;4973919;28;20028;-67
2024/03/18 07:50:33;;;;;;;;;;;;;;;8.66;49.30;95396.72;4949186;28;20231;-68
2024/03/18 07:52:58;;;;;;;;;;;;;;;8.60;49.20;95400.06;4956999;28;20028;-67
2024/03/18 07:55:23;;;;;;;;;;;;;;;8.35;50.16;95400.97;4951264;28;20054;-67
2024/03/18 07:57:48;;;;;;;;;;;;;;;8.29;50.56;95401.63;4957955;28;19980;-67
2024/03/18 08:00:15;;;;;;;;;;;;;;;8.28;50.63;95392.03;4958071;28;20258;-66
2024/03/18 08:02:41;;;;;;;;;;;;;;;8.42;49.41;95396.63;4952500;28;20040;-67
2024/03/18 08:05:07;;;;;;;;;;;;;;;8.57;50.12;95393.28;4947682;28;20616;-68
2024/03/18 08:07:32;;;;;;;;;;;;;;;8.54;49.73;95389.13;4963133;28;19959;-66
2024/03/18 08:09:57;;;;;;;;;;;;;;;8.69;48.99;95397.22;4952910;28;19983;-66
2024/03/18 08:12:23;;;;;;;;;;;;;;;8.79;48.49;95385.56;4954783;28;19977;-66
2024/03/18 08:14:48;;;;;;;;;;;;;;;8.90;48.35;95387.00;4948363;28;20161;-66
2024/03/18 08:17:13;;;;;;;;;;;;;;;9.02;48.62;95382.19;4947997;28;19985;-67
2024/03/18 08:19:39;;;;;;;;;;;;;;;9.08;48.57;95387.59;4962010;28;20438;-69
2024/03/18 08:22:04;;;;;;;;;;;;;;;9.16;48.35;95385.91;4956615;28;19956;-67
2024/03/18 08:24:30;;;;;;;;;;;;;;;9.34;47.68;95393.59;4953015;28;19945;-67
2024/03/18 08:26:55;;;;;;;;;;;;;;;9.31;48.75;95391.28;4954310;28;20537;-67
2024/03/18 08:29:21;;;;;;;;;;;;;;;9.37;48.84;95395.09;4949440;28;19981;-66
2024/03/18 08:31:46;;;;;;;;;;;;;;;9.26;48.55;95386.53;4953501;28;19969;-66
2024/03/18 08:34:11;;;;;;;;;;;;;;;8.91;49.14;95394.78;4948383;28;19932;-66
2024/03/18 08:36:37;;;;;;;;;;;;;;;8.93;49.64;95389.31;4951763;28;19922;-66
2024/03/18 08:39:03;;;;;;;;;;;;;;;9.09;48.58;95388.44;4950251;28;19922;-67
2024/03/18 08:41:28;;;;;;;;;;;;;;;9.35;47.60;95386.47;4955512;28;20002;-67
2024/03/18 08:43:53;;;;;;;;;;;;;;;9.59;46.76;95380.19;4967810;28;19925;-66
2024/03/18 08:46:18;;;;;;;;;;;;;;;9.81;46.20;95386.47;4957207;28;20317;-66
2024/03/18 08:48:44;;;;;;;;;;;;;;;9.93;45.36;95386.06;4951996;28;20538;-67
2024/03/18 08:51:09;;;;;;;;;;;;;;;10.01;45.12;95391.28;4951712;28;19976;-66
2024/03/18 08:53:34;;;;;;;;;;;;;;;10.15;46.47;95386.19;4949479;28;19926;-66
2024/03/18 08:55:59;;;;;;;;;;;;;;;10.08;46.78;95394.09;4951208;28;19926;-66
2024/03/18 08:58:25;;;;;;;;;;;;;;;10.02;45.20;95398.25;4948688;28;19926;-67
2024/03/18 09:00:50;;;;;;;;;;;;;;;10.10;45.98;95387.56;4957155;28;19926;-66
2024/03/18 09:03:16;;;;;;;;;;;;;;;10.37;44.82;95384.47;4954483;28;19926;-67
2024/03/18 09:05:41;;;;;;;;;;;;;;;10.59;44.46;95388.09;4956063;28;19977;-66
2024/03/18 09:08:06;;;;;;;;;;;;;;;10.78;44.73;95382.38;4955427;28;19993;-66
2024/03/18 09:10:31;;;;;;;;;;;;;;;10.99;43.34;95373.63;4950738;28;20430;-66
2024/03/18 09:12:58;;;;;;;;;;;;;;;11.15;43.31;95372.59;4950978;28;20027;-67
2024/03/18 09:15:23;;;;;;;;;;;;;;;11.30;43.97;95385.06;4951589;28;19930;-67
2024/03/18 09:17:48;;;;;;;;;;;;;;;11.45;43.26;95377.00;4957387;28;19922;-66
2024/03/18 09:20:16;;;;;;;;;;;;;;;11.63;43.01;95385.41;4947185;28;19922;-67
2024/03/18 09:22:42;;;;;;;;;;;;;;;11.79;41.81;95378.16;4952292;28;19930;-66
2024/03/18 09:25:09;;;;;;;;;;;;;;;11.84;41.96;95386.44;4955736;28;19933;-67
2024/03/18 09:27:35;;;;;;;;;;;;;;;11.90;42.24;95391.00;4956845;28;19927;-65
2024/03/18 09:30:00;;;;;;;;;;;;;;;11.95;41.84;95390.41;4962792;28;20415;-66
2024/03/18 09:32:25;;;;;;;;;;;;;;;12.09;41.14;95390.53;4955373;28;20032;-66
2024/03/18 09:34:51;;;;;;;;;;;;;;;12.01;42.15;95394.97;4960718;28;19926;-67
2024/03/18 09:37:17;;;;;;;;;;;;;;;12.05;40.61;95394.59;4953134;28;19984;-66
2024/03/18 09:39:42;;;;;;;;;;;;;;;12.08;41.68;95388.91;4956785;28;19930;-67
2024/03/18 09:42:07;;;;;;;;;;;;;;;12.26;40.73;95391.09;4958439;28;19930;-67
2024/03/18 09:44:35;;;;;;;;;;;;;;;12.49;40.51;95390.84;4957342;28;19933;-67
2024/03/18 09:47:00;;;;;;;;;;;;;;;12.62;42.28;95397.28;4960736;28;19977;-66
2024/03/18 09:49:25;;;;;;;;;;;;;;;12.58;41.32;95396.03;4960502;28;19930;-66
2024/03/18 09:51:50;;;;;;;;;;;;;;;12.22;43.66;95396.00;4951707;28;19931;-67
2024/03/18 09:54:16;;;;;;;;;;;;;;;11.68;44.27;95403.50;4956669;28;19937;-67
2024/03/18 09:56:42;;;;;;;;;;;;;;;11.85;44.42;95403.25;4950383;28;20374;-67
2024/03/18 09:59:08;;;;;;;;;;;;;;;10.19;48.70;95409.59;4960118;28;20627;-66
2024/03/18 10:01:35;;;;;;;;;;;;;;;11.13;45.92;95404.75;4966500;28;20691;-67
2024/03/18 10:04:00;;;;;;;;;;;;;;;10.62;47.71;95410.84;4960893;28;20319;-66
2024/03/18 10:06:26;;;;;;;;;;;;;;;9.94;49.88;95409.81;4958137;28;19937;-67
2024/03/18 10:08:51;;;;;;;;;;;;;;;11.12;46.92;95413.78;4972858;28;20431;-67
2024/03/18 10:11:16;;;;;;;;;;;;;;;11.66;45.59;95418.06;4954572;28;20474;-67
2024/03/18 10:13:42;;;;;;;;;;;;;;;11.09;47.25;95416.81;4961048;28;20449;-67
2024/03/18 10:16:09;;;;;;;;;;;;;;;11.78;45.20;95419.19;4957785;28;20052;-67
2024/03/18 10:18:34;;;;;;;;;;;;;;;11.31;46.85;95430.19;4955962;28;19927;-67
2024/03/18 10:21:00;;;;;;;;;;;;;;;9.83;49.16;95423.53;4957992;28;19933;-67
2024/03/18 10:23:25;;;;;;;;;;;;;;;9.79;50.29;95430.19;4947884;28;19988;-66
2024/03/18 10:25:51;;;;;;;;;;;;;;;9.85;50.33;95425.00;4954557;28;19948;-67
2024/03/18 10:28:16;;;;;;;;;;;;;;;10.77;48.76;95426.00;4953154;28;19932;-68
2024/03/18 10:30:41;;;;;;;;;;;;;;;10.34;49.74;95425.59;4953451;28;19930;-67
2024/03/18 10:33:08;;;;;;;;;;;;;;;10.69;48.53;95426.91;4950928;28;20423;-67
2024/03/18 10:35:34;;;;;;;;;;;;;;;9.30;53.18;95432.16;4952753;28;19929;-67
2024/03/18 10:37:59;;;;;;;;;;;;;;;10.32;50.27;95424.13;4956162;28;19961;-67
2024/03/18 10:40:38;;;;;;;;;;;;;;;11.17;48.52;95418.56;4961991;28;19922;-67
2024/03/18 10:43:06;;;;;;;;;;;;;;;11.30;47.06;95419.72;4952972;28;20397;-67
2024/03/18 10:45:32;;;;;;;;;;;;;;;11.31;46.57;95414.19;4964212;28;19932;-66
2024/03/18 10:48:10;;;;;;;;;;;;;;;11.25;47.44;95433.59;4955907;28;19930;-66
2024/03/18 10:50:35;;;;;;;;;;;;;;;11.60;45.80;95432.97;4959029;28;19933;-67
2024/03/18 10:53:01;;;;;;;;;;;;;;;11.24;46.80;95427.44;4961820;28;19922;-67
2024/03/18 10:55:29;;;;;;;;;;;;;;;11.38;47.04;95435.59;4955660;28;19925;-67
2024/03/18 10:57:54;;;;;;;;;;;;;;;10.85;47.38;95442.69;4956530;28;19922;-67
2024/03/18 11:00:19;;;;;;;;;;;;;;;10.32;48.46;95442.75;4964904;28;19929;-66
2024/03/18 11:03:14;;;;;;;;;;;;;;;10.46;48.18;95441.13;4952931;28;19988;-67
2024/03/18 11:05:49;;;;;;;;;;;;;;;10.39;49.73;95448.16;4960396;28;20380;-67
2024/03/18 11:08:16;;;;;;;;;;;;;;;10.37;48.85;95443.03;4952028;28;20632;-67
2024/03/18 11:10:41;;;;;;;;;;;;;;;10.58;47.99;95452.16;4957958;28;19984;-67
2024/03/18 11:13:10;;;;;;;;;;;;;;;10.42;48.77;95453.13;4957329;28;19922;-67
2024/03/18 11:15:37;;;;;;;;;;;;;;;10.13;49.14;95446.75;4954587;28;20440;-66
2024/03/18 11:18:03;;;;;;;;;;;;;;;10.67;47.84;95444.91;4952973;28;19930;-67
2024/03/18 11:20:28;;;;;;;;;;;;;;;11.35;47.41;95442.13;4955618;28;19926;-67
2024/03/18 11:22:57;;;;;;;;;;;;;;;11.48;46.70;95440.63;4958627;28;19929;-66
2024/03/18 11:25:26;;;;;;;;;;;;;;;12.03;44.21;95440.97;4959623;28;19933;-67
2024/03/18 11:27:52;;;;;;;;;;;;;;;12.21;44.58;95449.56;4958911;28;19926;-68
2024/03/18 11:30:22;;;;;;;;;;;;;;;12.67;43.80;95454.44;4968383;28;20534;-67
2024/03/18 11:32:48;;;;;;;;;;;;;;;12.09;44.75;95457.25;4969064;28;20287;-67
2024/03/18 11:35:13;;;;;;;;;;;;;;;11.69;46.48;95452.34;4951671;28;19930;-67
2024/03/18 11:37:38;;;;;;;;;;;;;;;11.53;45.69;95454.22;4956685;28;20044;-66
2024/03/18 11:40:04;;;;;;;;;;;;;;;10.96;46.09;95460.06;4957848;28;19969;-67
2024/03/18 11:42:29;;;;;;;;;;;;;;;10.85;49.35;95458.69;4955656;28;19930;-67
2024/03/18 11:44:55;;;;;;;;;;;;;;;11.03;47.44;95460.16;4954949;28;20458;-67
2024/03/18 11:47:20;;;;;;;;;;;;;;;11.15;46.92;95460.53;4952386;28;19961;-67
2024/03/18 11:49:47;;;;;;;;;;;;;;;11.33;46.33;95459.31;4961574;28;19985;-67
2024/03/18 11:52:12;;;;;;;;;;;;;;;11.41;46.34;95451.22;4951748;28;19933;-66
2024/03/18 11:54:37;;;;;;;;;;;;;;;11.54;45.00;95455.88;4960497;28;20551;-67
2024/03/18 11:57:04;;;;;;;;;;;;;;;10.49;48.26;95459.38;4951451;28;19923;-67
2024/03/18 11:59:30;;;;;;;;;;;;;;;11.21;46.79;95449.13;4970470;28;20272;-67
2024/03/18 12:01:58;;;;;;;;;;;;;;;11.20;46.42;95454.66;4951135;28;19933;-67
2024/03/18 12:04:23;;;;;;;;;;;;;;;11.34;47.03;95450.31;4953641;28;20322;-65
2024/03/18 12:06:51;;;;;;;;;;;;;;;11.41;47.32;95450.38;4951600;28;19977;-66
2024/03/18 12:09:17;;;;;;;;;;;;;;;11.70;46.65;95446.78;4957633;28;19981;-67
2024/03/18 12:11:42;;;;;;;;;;;;;;;11.98;47.18;95447.91;4960163;28;20303;-65
2024/03/18 12:14:08;;;;;;;;;;;;;;;10.72;48.06;95447.84;4956588;28;20482;-67
2024/03/18 12:16:34;;;;;;;;;;;;;;;10.12;50.86;95448.56;4957144;28;19961;-66
2024/03/18 12:19:06;;;;;;;;;;;;;;;10.16;49.79;95447.22;4969404;28;20140;-65
2024/03/18 12:21:38;;;;;;;;;;;;;;;10.21;50.82;95439.50;4954147;28;19933;-67
2024/03/18 12:29:35;;;;;;;;;;;;;;;9.24;52.83;95454.13;4954555;28;19964;-66
2024/03/18 12:32:00;;;;;;;;;;;;;;;9.53;52.28;95457.94;4961580;28;19969;-66
2024/03/18 12:34:25;;;;;;;;;;;;;;;9.13;54.33;95450.84;4952766;28;19993;-66
2024/03/18 12:36:51;;;;;;;;;;;;;;;9.48;53.96;95461.13;4950524;28;20494;-65
2024/03/18 12:39:18;;;;;;;;;;;;;;;9.74;52.78;95452.00;4957158;28;20029;-66
2024/03/18 12:41:44;;;;;;;;;;;;;;;9.77;52.68;95450.81;4958987;28;19934;-66
2024/03/18 12:44:09;;;;;;;;;;;;;;;9.46;53.59;95448.00;4958699;28;20754;-65
2024/03/18 12:46:35;;;;;;;;;;;;;;;9.88;52.74;95446.91;4966967;28;19940;-67
2024/03/18 12:49:01;;;;;;;;;;;;;;;8.88;54.18;95450.06;4958362;28;19926;-67
2024/03/18 12:51:27;;;;;;;;;;;;;;;8.60;56.52;95448.66;4956378;28;20001;-66
2024/03/18 12:53:53;;;;;;;;;;;;;;;8.85;55.94;95450.41;4956416;28;19929;-67
2024/03/18 12:56:19;;;;;;;;;;;;;;;7.99;58.31;95444.59;4953570;28;19940;-65